createdAt,value
2018-09-06T00:01:41.630Z,97888.65
2018-09-06T00:04:14.878Z,97890.39
2018-09-06T00:06:48.022Z,97882.87
2018-09-06T00:09:21.165Z,97878.41
2018-09-06T00:11:54.285Z,97877.05
2018-09-06T00:14:27.454Z,97880.92
2018-09-06T00:17:00.570Z,97873.33
2018-09-06T00:19:33.774Z,97870.65
2018-09-06T00:22:06.869Z,97869.98
2018-09-06T00:24:40.077Z,97867.70
2018-09-06T00:27:13.230Z,97863.62
2018-09-06T00:29:46.394Z,97868.33
2018-09-06T00:32:19.650Z,97866.69
2018-09-06T00:34:52.814Z,97868.25
2018-09-06T00:37:25.945Z,97874.97
2018-09-06T00:39:59.122Z,97864.61
2018-09-06T00:42:32.312Z,97869.71
2018-09-06T00:45:05.538Z,97867.22
2018-09-06T00:47:38.787Z,97869.53
2018-09-06T00:50:18.924Z,97868.23
2018-09-06T00:52:52.765Z,97870.73
2018-09-06T00:55:25.893Z,97870.38
2018-09-06T00:57:59.079Z,97876.41
2018-09-06T01:00:32.284Z,97878.82
2018-09-06T01:03:05.529Z,97873.31
2018-09-06T01:05:38.743Z,97870.06
2018-09-06T01:08:11.882Z,97865.13
2018-09-06T01:10:44.992Z,97862.29
2018-09-06T01:13:18.132Z,97862.52
2018-09-06T01:15:51.252Z,97862.88
2018-09-06T01:18:24.421Z,97860.81
2018-09-06T01:20:57.591Z,97864.16
2018-09-06T01:23:30.802Z,97863.94
2018-09-06T01:26:03.973Z,97863.65
2018-09-06T01:28:37.156Z,97864.33
2018-09-06T01:31:10.250Z,97862.52
2018-09-06T01:33:43.412Z,97858.09
2018-09-06T01:36:22.369Z,97854.06
2018-09-06T01:38:55.572Z,97854.29
2018-09-06T01:41:28.709Z,97853.52
2018-09-06T01:44:01.868Z,97848.48
2018-09-06T01:49:22.261Z,97855.71
2018-09-06T01:51:55.457Z,97853.25
2018-09-06T01:54:28.657Z,97857.03
2018-09-06T01:57:01.846Z,97846.34
2018-09-06T01:59:39.225Z,97848.00
2018-09-06T02:02:12.396Z,97837.22
2018-09-06T02:04:45.594Z,97836.67
2018-09-06T02:07:18.721Z,97837.44
2018-09-06T02:09:51.878Z,97835.25
2018-09-06T02:12:25.030Z,97834.99
2018-09-06T02:14:58.205Z,97833.86
2018-09-06T02:17:31.365Z,97827.21
2018-09-06T02:20:04.639Z,97826.41
2018-09-06T02:22:37.786Z,97821.80
2018-09-06T02:25:11.090Z,97820.15
2018-09-06T02:27:44.223Z,97823.53
2018-09-06T02:30:17.505Z,97822.63
2018-09-06T02:32:50.644Z,97823.83
2018-09-06T02:35:23.831Z,97814.30
2018-09-06T02:37:56.958Z,97813.86
2018-09-06T02:40:35.846Z,97809.30
2018-09-06T02:43:10.693Z,97807.36
2018-09-06T02:45:44.334Z,97803.59
2018-09-06T02:48:17.505Z,97796.38
2018-09-06T02:50:56.258Z,97800.33
2018-09-06T02:53:31.121Z,97797.46
2018-09-06T02:56:04.273Z,97797.20
2018-09-06T02:58:37.773Z,97793.13
2018-09-06T03:01:10.949Z,97789.67
2018-09-06T03:03:44.234Z,97783.58
2018-09-06T03:06:17.479Z,97783.36
2018-09-06T03:08:50.674Z,97782.14
2018-09-06T03:11:28.095Z,97784.55
2018-09-06T03:14:01.284Z,97791.52
2018-09-06T03:16:34.437Z,97783.27
2018-09-06T03:19:07.591Z,97780.27
2018-09-06T03:21:40.825Z,97783.75
2018-09-06T03:24:13.982Z,97780.83
2018-09-06T03:26:47.192Z,97780.12
2018-09-06T03:29:20.332Z,97776.86
2018-09-06T03:31:53.515Z,97779.34
2018-09-06T03:34:26.671Z,97777.25
2018-09-06T03:36:59.819Z,97775.62
2018-09-06T03:39:32.968Z,97776.00
2018-09-06T03:42:06.074Z,97776.80
2018-09-06T03:44:39.258Z,97779.38
2018-09-06T03:47:12.449Z,97774.55
2018-09-06T03:49:45.606Z,97778.37
2018-09-06T03:52:18.751Z,97779.76
2018-09-06T03:54:51.977Z,97770.95
2018-09-06T03:57:25.118Z,97767.98
2018-09-06T03:59:58.260Z,97767.60
2018-09-06T04:02:31.412Z,97767.60
2018-09-06T04:05:04.679Z,97767.98
2018-09-06T04:07:37.866Z,97761.83
2018-09-06T04:10:11.084Z,97764.50
2018-09-06T04:12:44.224Z,97762.48
2018-09-06T04:15:17.392Z,97761.41
2018-09-06T04:17:50.609Z,97760.53
2018-09-06T04:20:23.859Z,97757.86
2018-09-06T04:22:57.114Z,97754.13
2018-09-06T04:25:30.259Z,97756.02
2018-09-06T04:28:03.459Z,97760.72
2018-09-06T04:30:36.761Z,97760.30
2018-09-06T04:33:09.889Z,97758.03
2018-09-06T04:35:43.096Z,97757.20
2018-09-06T04:38:16.242Z,97752.98
2018-09-06T04:40:49.444Z,97752.47
2018-09-06T04:43:22.588Z,97752.87
2018-09-06T04:45:55.790Z,97749.33
2018-09-06T04:48:28.954Z,97748.05
2018-09-06T04:51:02.070Z,97741.70
2018-09-06T04:53:35.391Z,97744.31
2018-09-06T04:56:08.530Z,97746.44
2018-09-06T04:58:41.957Z,97746.19
2018-09-06T05:01:15.138Z,97746.99
2018-09-06T05:03:48.298Z,97748.25
2018-09-06T05:06:21.458Z,97749.67
2018-09-06T05:08:54.662Z,97746.70
2018-09-06T05:11:27.901Z,97745.97
2018-09-06T05:14:01.050Z,97745.87
2018-09-06T05:16:34.200Z,97745.27
2018-09-06T05:19:07.408Z,97746.04
2018-09-06T05:21:40.547Z,97743.41
2018-09-06T05:24:13.687Z,97746.64
2018-09-06T05:26:46.847Z,97747.73
2018-09-06T05:29:20.011Z,97746.03
2018-09-06T05:31:53.409Z,97746.00
2018-09-06T05:34:26.564Z,97746.48
2018-09-06T05:36:59.744Z,97751.44
2018-09-06T05:39:33.070Z,97744.36
2018-09-06T05:42:06.400Z,97742.39
2018-09-06T05:44:39.596Z,97733.84
2018-09-06T05:47:12.806Z,97736.95
2018-09-06T05:49:46.034Z,97735.73
2018-09-06T05:52:19.233Z,97738.34
2018-09-06T05:54:52.406Z,97741.36
2018-09-06T05:57:25.519Z,97739.70
2018-09-06T05:59:58.768Z,97742.52
2018-09-06T06:02:38.745Z,97741.84
2018-09-06T06:05:12.064Z,97734.30
2018-09-06T06:08:02.224Z,97732.78
2018-09-06T06:10:35.444Z,97738.92
2018-09-06T06:13:08.598Z,97732.91
2018-09-06T06:15:41.801Z,97737.16
2018-09-06T06:18:14.897Z,97730.67
2018-09-06T06:20:48.078Z,97732.31
2018-09-06T06:23:21.222Z,97725.86
2018-09-06T06:25:54.348Z,97727.83
2018-09-06T06:28:27.566Z,97727.95
2018-09-06T06:31:00.764Z,97722.69
2018-09-06T06:33:33.923Z,97722.20
2018-09-06T06:36:07.184Z,97723.33
2018-09-06T06:38:40.366Z,97717.47
2018-09-06T06:41:13.496Z,97710.23
2018-09-06T06:43:46.648Z,97726.88
2018-09-06T06:46:19.767Z,97719.25
2018-09-06T06:48:52.964Z,97724.44
2018-09-06T06:51:26.206Z,97716.65
2018-09-06T06:53:59.453Z,97715.82
2018-09-06T06:56:32.596Z,97713.81
2018-09-06T06:59:05.797Z,97709.64
2018-09-06T07:01:38.948Z,97709.75
2018-09-06T07:04:12.139Z,97708.88
2018-09-06T07:06:45.273Z,97715.87
2018-09-06T07:09:18.477Z,97704.20
2018-09-06T07:11:51.664Z,97704.80
2018-09-06T07:14:24.957Z,97708.00
2018-09-06T07:16:58.098Z,97709.11
2018-09-06T07:19:31.328Z,97711.01
2018-09-06T07:22:04.579Z,97709.77
2018-09-06T07:24:37.773Z,97715.39
2018-09-06T07:27:10.999Z,97711.48
2018-09-06T07:29:44.170Z,97706.29
2018-09-06T07:32:17.376Z,97714.14
2018-09-06T07:34:50.583Z,97712.38
2018-09-06T07:37:23.731Z,97711.98
2018-09-06T07:39:56.913Z,97711.55
2018-09-06T07:42:30.138Z,97704.54
2018-09-06T07:45:03.744Z,97706.25
2018-09-06T07:47:36.870Z,97705.81
2018-09-06T07:50:10.141Z,97698.38
2018-09-06T07:52:43.265Z,97690.95
2018-09-06T07:55:16.412Z,97696.58
2018-09-06T07:57:49.651Z,97692.61
2018-09-06T08:00:23.006Z,97699.18
2018-09-06T08:02:56.250Z,97700.47
2018-09-06T08:05:29.420Z,97702.55
2018-09-06T08:08:02.628Z,97700.34
2018-09-06T08:10:35.836Z,97699.81
2018-09-06T08:13:09.030Z,97703.55
2018-09-06T08:15:42.225Z,97698.12
2018-09-06T08:18:15.397Z,97693.15
2018-09-06T08:20:48.639Z,97695.23
2018-09-06T08:23:21.873Z,97694.58
2018-09-06T08:25:55.105Z,97688.28
2018-09-06T08:28:28.321Z,97690.05
2018-09-06T08:31:01.699Z,97693.05
2018-09-06T08:33:34.955Z,97693.00
2018-09-06T08:36:29.188Z,97689.75
2018-09-06T08:39:02.581Z,97689.81
2018-09-06T08:41:36.003Z,97691.58
2018-09-06T08:44:09.410Z,97689.27
2018-09-06T08:46:42.701Z,97680.15
2018-09-06T08:49:15.904Z,97673.85
2018-09-06T08:51:49.060Z,97681.08
2018-09-06T08:54:22.261Z,97677.64
2018-09-06T08:56:55.435Z,97676.52
2018-09-06T08:59:28.703Z,97677.21
2018-09-06T09:02:02.036Z,97683.13
2018-09-06T09:04:35.757Z,97689.19
2018-09-06T09:07:08.909Z,97675.97
2018-09-06T09:09:42.147Z,97674.42
2018-09-06T09:12:15.515Z,97674.52
2018-09-06T09:14:48.671Z,97670.39
2018-09-06T09:17:21.984Z,97663.63
2018-09-06T09:19:55.167Z,97666.49
2018-09-06T09:22:28.566Z,97664.27
2018-09-06T09:25:01.658Z,97666.23
2018-09-06T09:27:35.277Z,97663.57
2018-09-06T09:30:08.739Z,97653.47
2018-09-06T09:32:42.050Z,97655.08
2018-09-06T09:35:15.201Z,97644.25
2018-09-06T09:37:48.451Z,97642.01
2018-09-06T09:40:21.664Z,97633.55
2018-09-06T09:42:54.905Z,97634.97
2018-09-06T09:45:28.117Z,97635.21
2018-09-06T09:48:01.355Z,97637.66
2018-09-06T09:53:07.276Z,97633.66
2018-09-06T09:55:40.480Z,97628.98
2018-09-06T09:58:13.709Z,97630.47
2018-09-06T10:00:46.937Z,97626.62
2018-09-06T10:03:25.618Z,97627.98
2018-09-06T10:07:06.281Z,97615.95
2018-09-06T10:09:39.544Z,97618.39
2018-09-06T10:12:12.758Z,97621.53
2018-09-06T10:14:45.953Z,97611.48
2018-09-06T10:17:19.143Z,97610.71
2018-09-06T10:19:52.313Z,97600.43
2018-09-06T10:22:25.514Z,97595.77
2018-09-06T10:24:58.716Z,97602.87
2018-09-06T10:27:32.099Z,97588.66
2018-09-06T10:30:05.341Z,97593.21
2018-09-06T10:32:38.568Z,97587.59
2018-09-06T10:35:11.789Z,97586.95
2018-09-06T10:37:45.194Z,97592.86
2018-09-06T10:40:18.441Z,97581.76
2018-09-06T10:42:51.677Z,97578.85
2018-09-06T10:45:24.896Z,97576.11
2018-09-06T10:47:58.163Z,97574.12
2018-09-06T10:50:31.274Z,97570.44
2018-09-06T10:53:04.474Z,97569.47
2018-09-06T10:55:37.674Z,97566.81
2018-09-06T10:58:10.894Z,97563.31
2018-09-06T11:00:44.146Z,97560.88
2018-09-06T11:03:17.329Z,97554.47
2018-09-06T11:05:50.550Z,97549.73
2018-09-06T11:08:23.738Z,97545.23
2018-09-06T11:10:56.905Z,97544.77
2018-09-06T11:13:30.170Z,97542.50
2018-09-06T11:16:03.389Z,97538.69
2018-09-06T11:18:36.604Z,97524.70
2018-09-06T11:21:09.979Z,97529.67
2018-09-06T11:23:43.079Z,97530.56
2018-09-06T11:26:16.349Z,97526.19
2018-09-06T11:28:49.518Z,97523.70
2018-09-06T11:31:22.715Z,97521.05
2018-09-06T11:33:56.082Z,97520.11
2018-09-06T11:36:29.333Z,97515.37
2018-09-06T11:39:02.781Z,97519.30
2018-09-06T11:41:36.341Z,97521.00
2018-09-06T11:44:09.516Z,97517.96
2018-09-06T11:46:42.712Z,97512.42
2018-09-06T11:49:15.994Z,97516.98
2018-09-06T11:51:49.211Z,97518.30
2018-09-06T11:54:22.556Z,97519.73
2018-09-06T11:56:55.790Z,97522.23
2018-09-06T11:59:29.168Z,97509.34
2018-09-06T12:02:02.455Z,97511.34
2018-09-06T12:04:35.733Z,97512.83
2018-09-06T12:07:09.040Z,97509.01
2018-09-06T12:09:42.341Z,97504.27
2018-09-06T12:12:15.561Z,97503.56
2018-09-06T12:14:48.766Z,97503.81
2018-09-06T12:17:21.959Z,97504.96
2018-09-06T12:19:55.304Z,97505.88
2018-09-06T12:22:28.545Z,97504.33
2018-09-06T12:25:02.871Z,97501.42
2018-09-06T12:27:37.120Z,97496.06
2018-09-06T12:30:11.211Z,97491.52
2018-09-06T12:32:44.455Z,97493.92
2018-09-06T12:35:18.366Z,97489.80
2018-09-06T12:37:52.617Z,97476.27
2018-09-06T12:40:26.735Z,97474.84
2018-09-06T12:43:00.527Z,97472.34
2018-09-06T12:45:33.735Z,97477.39
2018-09-06T12:48:07.017Z,97481.97
2018-09-06T12:50:40.249Z,97482.11
2018-09-06T12:53:13.500Z,97482.47
2018-09-06T12:55:46.664Z,97480.95
2018-09-06T12:58:19.945Z,97477.08
2018-09-06T13:00:53.587Z,97480.35
2018-09-06T13:03:26.991Z,97474.87
2018-09-06T13:06:00.183Z,97469.25
2018-09-06T13:08:33.429Z,97467.61
2018-09-06T13:11:06.698Z,97465.83
2018-09-06T13:13:40.011Z,97461.06
2018-09-06T13:16:13.202Z,97459.73
2018-09-06T13:18:46.532Z,97460.27
2018-09-06T13:21:19.601Z,97457.58
2018-09-06T13:23:52.787Z,97451.36
2018-09-06T13:26:26.001Z,97455.41
2018-09-06T13:28:59.181Z,97458.94
2018-09-06T13:31:32.404Z,97465.30
2018-09-06T13:34:05.633Z,97475.29
2018-09-06T13:36:38.854Z,97473.12
2018-09-06T13:39:12.332Z,97481.69
2018-09-06T13:41:45.541Z,97479.77
2018-09-06T13:44:21.571Z,97491.67
2018-09-06T13:46:54.740Z,97493.17
2018-09-06T13:49:28.038Z,97493.30
2018-09-06T13:52:01.298Z,97486.33
2018-09-06T13:54:34.489Z,97493.03
2018-09-06T13:57:08.168Z,97489.34
2018-09-06T13:59:41.432Z,97487.77
2018-09-06T14:02:14.571Z,97496.05
2018-09-06T14:04:47.906Z,97481.73
2018-09-06T14:07:21.156Z,97472.80
2018-09-06T14:09:54.372Z,97474.89
2018-09-06T14:12:27.586Z,97477.09
2018-09-06T14:15:00.804Z,97475.94
2018-09-06T14:17:34.024Z,97480.56
2018-09-06T14:20:07.222Z,97491.82
2018-09-06T14:22:40.433Z,97500.75
2018-09-06T14:25:13.650Z,97519.20
2018-09-06T14:27:46.850Z,97515.81
2018-09-06T14:30:27.099Z,97516.84
2018-09-06T14:33:00.284Z,97512.53
2018-09-06T14:35:33.426Z,97506.48
2018-09-06T14:38:06.645Z,97490.34
2018-09-06T14:40:39.786Z,97482.95
2018-09-06T14:43:13.024Z,97480.36
2018-09-06T14:45:46.201Z,97471.64
2018-09-06T14:48:19.402Z,97462.53
2018-09-06T14:50:52.727Z,97459.44
2018-09-06T14:53:25.959Z,97451.59
2018-09-06T14:55:59.150Z,97447.20
2018-09-06T14:58:32.361Z,97438.98
2018-09-06T15:01:05.637Z,97431.11
2018-09-06T15:03:38.904Z,97437.59
2018-09-06T15:06:18.831Z,97430.22
2018-09-06T15:08:52.028Z,97420.23
2018-09-06T15:11:25.207Z,97423.73
2018-09-06T15:13:58.457Z,97421.98
2018-09-06T15:16:31.737Z,97429.81
2018-09-06T15:19:05.389Z,97433.80
2018-09-06T15:21:38.569Z,97434.78
2018-09-06T15:24:11.815Z,97436.96
2018-09-06T15:26:45.039Z,97437.82
2018-09-06T15:29:18.299Z,97432.60
2018-09-06T15:31:51.435Z,97436.52
2018-09-06T15:34:25.133Z,97433.02
2018-09-06T15:36:58.357Z,97431.73
2018-09-06T15:39:31.598Z,97435.22
2018-09-06T15:42:04.849Z,97442.59
2018-09-06T15:44:38.089Z,97444.27
2018-09-06T15:47:11.403Z,97442.59
2018-09-06T15:49:44.780Z,97442.55
2018-09-06T15:52:17.861Z,97439.94
2018-09-06T15:54:51.098Z,97436.02
2018-09-06T15:57:24.473Z,97436.47
2018-09-06T15:59:57.723Z,97433.83
2018-09-06T16:02:30.922Z,97433.39
2018-09-06T16:05:04.165Z,97429.93
2018-09-06T16:07:37.412Z,97433.42
2018-09-06T16:10:10.669Z,97430.36
2018-09-06T16:12:43.919Z,97429.92
2018-09-06T16:15:17.251Z,97430.34
2018-09-06T16:17:50.465Z,97429.45
2018-09-06T16:20:23.677Z,97429.48
2018-09-06T16:22:57.009Z,97418.17
2018-09-06T16:25:30.258Z,97417.30
2018-09-06T16:28:03.467Z,97409.47
2018-09-06T16:30:36.841Z,97408.16
2018-09-06T16:33:10.058Z,97409.89
2018-09-06T16:35:43.374Z,97406.42
2018-09-06T16:38:16.634Z,97405.16
2018-09-06T16:40:49.906Z,97406.45
2018-09-06T16:43:23.224Z,97410.80
2018-09-06T16:45:56.619Z,97403.86
2018-09-06T16:48:29.987Z,97407.77
2018-09-06T16:51:03.478Z,97404.68
2018-09-06T16:53:36.696Z,97409.87
2018-09-06T16:56:09.949Z,97416.82
2018-09-06T16:58:43.227Z,97410.30
2018-09-06T17:01:16.550Z,97410.71
2018-09-06T17:03:51.119Z,97414.20
2018-09-06T17:06:27.311Z,97415.52
2018-09-06T17:09:00.546Z,97427.69
2018-09-06T17:11:33.845Z,97439.37
2018-09-06T17:14:07.160Z,97437.63
2018-09-06T17:16:40.473Z,97440.26
2018-09-06T17:19:13.773Z,97446.73
2018-09-06T17:21:47.027Z,97462.37
2018-09-06T17:24:20.286Z,97461.06
2018-09-06T17:26:53.830Z,97475.38
2018-09-06T17:29:27.133Z,97489.67
2018-09-06T17:32:00.426Z,97486.91
2018-09-06T17:34:33.670Z,97502.05
2018-09-06T17:37:06.828Z,97515.89
2018-09-06T17:39:40.107Z,97521.50
2018-09-06T17:42:13.284Z,97529.27
2018-09-06T17:44:46.567Z,97523.20
2018-09-06T17:47:19.746Z,97528.33
2018-09-06T17:49:53.019Z,97522.72
2018-09-06T17:52:26.293Z,97530.84
2018-09-06T17:54:59.520Z,97533.22
2018-09-06T17:57:32.779Z,97522.48
2018-09-06T18:00:06.797Z,97527.43
2018-09-06T18:02:40.131Z,97526.90
2018-09-06T18:05:13.438Z,97533.19
2018-09-06T18:07:46.690Z,97537.55
2018-09-06T18:12:42.816Z,97543.79
2018-09-06T18:15:16.042Z,97545.02
2018-09-06T18:17:49.398Z,97547.56
2018-09-06T18:20:22.650Z,97544.07
2018-09-06T18:22:55.920Z,97542.22
2018-09-06T18:25:29.388Z,97555.16
2018-09-06T18:28:02.759Z,97554.64
2018-09-06T18:30:36.162Z,97560.30
2018-09-06T18:33:09.419Z,97572.34
2018-09-06T18:35:42.797Z,97580.50
2018-09-06T18:38:16.080Z,97589.16
2018-09-06T18:40:49.366Z,97593.95
2018-09-06T18:43:22.544Z,97609.56
2018-09-06T18:45:55.829Z,97613.41
2018-09-06T18:48:29.057Z,97611.00
2018-09-06T18:51:02.380Z,97621.81
2018-09-06T18:53:35.662Z,97629.59
2018-09-06T18:56:09.121Z,97633.05
2018-09-06T18:58:42.393Z,97631.33
2018-09-06T19:01:14.745Z,97633.40
2018-09-06T19:03:58.474Z,97628.56
2018-09-06T19:06:30.906Z,97618.99
2018-09-06T19:09:04.584Z,97618.48
2018-09-06T19:11:36.957Z,97617.18
2018-09-06T19:14:09.293Z,97623.66
2018-09-06T19:16:41.672Z,97621.88
2018-09-06T19:19:14.014Z,97616.21
2018-09-06T19:21:46.459Z,97620.55
2018-09-06T19:24:18.809Z,97617.46
2018-09-06T19:26:51.169Z,97617.46
2018-09-06T19:29:23.524Z,97622.66
2018-09-06T19:31:55.977Z,97621.31
2018-09-06T19:34:28.218Z,97626.41
2018-09-06T19:37:00.555Z,97625.88
2018-09-06T19:39:32.918Z,97635.96
2018-09-06T19:42:05.314Z,97638.55
2018-09-06T19:44:37.654Z,97642.94
2018-09-06T19:47:09.958Z,97639.22
2018-09-06T19:49:42.425Z,97646.00
2018-09-06T19:52:14.793Z,97647.40
2018-09-06T19:54:47.181Z,97647.40
2018-09-06T19:57:19.582Z,97635.67
2018-09-06T19:59:52.016Z,97640.29
2018-09-06T20:02:24.378Z,97642.36
2018-09-06T20:04:57.226Z,97643.55
2018-09-06T20:07:29.604Z,97645.27
2018-09-06T20:10:02.035Z,97641.00
2018-09-06T20:12:34.540Z,97636.05
2018-09-06T20:15:07.110Z,97637.65
2018-09-06T20:17:39.468Z,97637.06
2018-09-06T20:20:11.809Z,97634.03
2018-09-06T20:22:44.134Z,97631.33
2018-09-06T20:25:16.435Z,97627.02
2018-09-06T20:27:48.821Z,97624.59
2018-09-06T20:30:21.144Z,97629.16
2018-09-06T20:32:53.480Z,97624.53
2018-09-06T20:35:25.848Z,97627.98
2018-09-06T20:37:58.237Z,97628.48
2018-09-06T20:40:30.562Z,97630.24
2018-09-06T20:43:02.971Z,97620.41
2018-09-06T20:45:35.287Z,97618.58
2018-09-06T20:48:14.605Z,97623.32
2018-09-06T20:50:47.017Z,97627.64
2018-09-06T20:53:19.419Z,97627.14
2018-09-06T20:55:51.794Z,97624.88
2018-09-06T20:58:24.090Z,97625.41
2018-09-06T21:00:56.486Z,97626.09
2018-09-06T21:03:28.894Z,97635.07
2018-09-06T21:06:01.341Z,97635.92
2018-09-06T21:08:33.666Z,97637.27
2018-09-06T21:11:06.083Z,97632.95
2018-09-06T21:13:38.497Z,97636.75
2018-09-06T21:16:10.889Z,97636.68
2018-09-06T21:18:43.252Z,97641.38
2018-09-06T21:21:15.710Z,97638.77
2018-09-06T21:23:48.132Z,97639.63
2018-09-06T21:26:20.552Z,97640.93
2018-09-06T21:28:52.941Z,97639.69
2018-09-06T21:31:25.282Z,97639.69
2018-09-06T21:33:57.600Z,97636.55
2018-09-06T21:36:29.957Z,97628.23
2018-09-06T21:39:02.387Z,97635.06
2018-09-06T21:41:34.720Z,97631.75
2018-09-06T21:44:07.366Z,97632.10
2018-09-06T21:46:40.062Z,97626.58
2018-09-06T21:49:12.384Z,97628.72
2018-09-06T21:51:44.709Z,97637.03
2018-09-06T21:54:17.009Z,97632.16
2018-09-06T21:56:49.408Z,97633.34
2018-09-06T21:59:21.713Z,97627.30
2018-09-06T22:01:54.021Z,97631.56
2018-09-06T22:04:26.344Z,97628.28
2018-09-06T22:06:58.648Z,97627.74
2018-09-06T22:09:30.956Z,97626.86
2018-09-06T22:12:03.334Z,97621.06
2018-09-06T22:14:35.625Z,97618.05
2018-09-06T22:17:07.923Z,97617.69
2018-09-06T22:19:40.296Z,97615.45
2018-09-06T22:22:12.599Z,97607.28
2018-09-06T22:24:44.956Z,97606.89
2018-09-06T22:27:17.246Z,97611.72
2018-09-06T22:29:49.669Z,97612.62
2018-09-06T22:32:21.937Z,97608.25
2018-09-06T22:34:54.304Z,97609.43
2018-09-06T22:37:26.681Z,97605.53
2018-09-06T22:39:59.050Z,97609.80
2018-09-06T22:42:31.355Z,97610.92
2018-09-06T22:45:03.709Z,97609.06
2018-09-06T22:47:36.061Z,97612.02
2018-09-06T22:50:08.436Z,97614.16
2018-09-06T22:52:40.700Z,97613.31
2018-09-06T22:55:13.085Z,97617.80
2018-09-06T22:57:45.337Z,97616.02
2018-09-06T23:00:20.248Z,97615.97
2018-09-06T23:02:58.184Z,97625.01
2018-09-06T23:05:30.901Z,97628.83
2018-09-06T23:08:03.552Z,97629.28
2018-09-06T23:10:35.841Z,97626.23
2018-09-06T23:13:08.187Z,97628.34
2018-09-06T23:15:40.425Z,97630.52
2018-09-06T23:18:12.709Z,97634.94
2018-09-06T23:20:44.980Z,97634.58
2018-09-06T23:23:17.329Z,97635.38
2018-09-06T23:25:49.632Z,97641.05
2018-09-06T23:28:21.932Z,97644.55
2018-09-06T23:30:54.183Z,97647.56
2018-09-06T23:33:26.493Z,97650.66
2018-09-06T23:35:58.805Z,97651.17
2018-09-06T23:38:31.124Z,97644.69
2018-09-06T23:41:03.413Z,97640.42
2018-09-06T23:43:35.742Z,97643.41
2018-09-06T23:46:08.043Z,97643.34
2018-09-06T23:48:40.312Z,97647.22
2018-09-06T23:51:12.538Z,97649.80
2018-09-06T23:53:44.813Z,97650.16
2018-09-06T23:56:17.114Z,97644.44
2018-09-06T23:58:49.392Z,97651.17
